Time;durP1;ratioP1;P1;durP2;ratioP2;P2;SDS_P1;SDS_P2;PMS_P1;PMS_P2;Temp;Humidity;BMP_temperature;BMP_pressure;BME280_temperature;BME280_humidity;BME280_pressure;Samples;Min_cycle;Max_cycle;Signal;HPM_P1;HPM_P2
2023/05/16 00:00:16;;;;;;;0.30;0.30;;;;;;;12.88;59.77;99869.78;5104756;28;20475;-61
2023/05/16 00:02:42;;;;;;;0.30;0.30;;;;;;;12.88;59.85;99875.84;5104377;28;20044;-62
2023/05/16 00:05:09;;;;;;;0.30;0.30;;;;;;;12.84;61.07;99873.38;5104816;28;20529;-61
2023/05/16 00:07:35;;;;;;;0.30;0.30;;;;;;;12.74;61.95;99873.63;5107140;28;20050;-63
2023/05/16 00:10:01;;;;;;;1.33;1.27;;;;;;;12.69;62.55;99872.88;5108357;28;20020;-62
2023/05/16 00:12:27;;;;;;;0.30;0.30;;;;;;;12.62;62.84;99863.53;5108132;28;20028;-62
2023/05/16 00:14:52;;;;;;;0.60;0.60;;;;;;;12.56;63.38;99867.13;5108561;28;20027;-61
2023/05/16 00:17:19;;;;;;;0.30;0.30;;;;;;;12.52;63.69;99855.09;5107956;28;20130;-60
2023/05/16 00:19:56;;;;;;;0.30;0.30;;;;;;;12.46;63.75;99856.09;5108049;28;20027;-60
2023/05/16 00:22:22;;;;;;;0.30;0.30;;;;;;;12.47;63.54;99851.75;5108050;28;20506;-61
2023/05/16 00:24:48;;;;;;;0.32;0.32;;;;;;;12.47;63.40;99852.59;5108015;28;20056;-61
2023/05/16 00:27:13;;;;;;;0.40;0.40;;;;;;;12.52;63.01;99844.69;5107913;28;20031;-61
2023/05/16 00:29:39;;;;;;;0.30;0.30;;;;;;;12.52;62.80;99842.06;5108227;28;20101;-61
2023/05/16 00:32:07;;;;;;;0.50;0.50;;;;;;;12.50;62.56;99844.72;5107610;28;20175;-61
2023/05/16 00:34:33;;;;;;;0.30;0.30;;;;;;;12.49;62.33;99848.19;5108071;28;20024;-60
2023/05/16 00:36:58;;;;;;;0.30;0.30;;;;;;;12.42;62.03;99841.44;5107713;28;20016;-61
2023/05/16 00:39:24;;;;;;;0.30;0.30;;;;;;;12.41;62.31;99844.94;5107861;28;20100;-60
2023/05/16 00:41:49;;;;;;;0.55;0.55;;;;;;;12.33;62.50;99841.69;5107619;28;20020;-61
2023/05/16 00:44:15;;;;;;;0.50;0.50;;;;;;;12.30;62.70;99844.34;5107840;28;20024;-62
2023/05/16 00:46:40;;;;;;;0.30;0.30;;;;;;;12.24;62.73;99837.53;5107524;28;20027;-61
2023/05/16 00:49:07;;;;;;;0.30;0.30;;;;;;;12.20;62.67;99838.53;5107245;28;20046;-61
2023/05/16 00:51:33;;;;;;;0.30;0.30;;;;;;;12.19;62.33;99837.66;5107447;28;20027;-60
2023/05/16 00:53:59;;;;;;;0.82;0.82;;;;;;;12.13;62.52;99830.88;5107538;28;20024;-62
2023/05/16 00:56:25;;;;;;;1.15;1.05;;;;;;;12.14;64.06;99835.16;5107251;28;20023;-61
2023/05/16 00:58:50;;;;;;;0.30;0.30;;;;;;;12.11;65.46;99827.44;5107603;28;20028;-61
2023/05/16 01:01:16;;;;;;;0.68;0.68;;;;;;;12.03;65.00;99818.91;5107418;28;20024;-60
2023/05/16 01:03:42;;;;;;;1.17;1.17;;;;;;;11.99;65.62;99825.09;5107069;28;20035;-61
2023/05/16 01:06:08;;;;;;;0.30;0.30;;;;;;;11.95;65.09;99824.31;5107246;28;20016;-60
2023/05/16 01:08:33;;;;;;;0.30;0.30;;;;;;;11.92;64.74;99821.78;5107254;28;20044;-60
2023/05/16 01:11:07;;;;;;;0.30;0.30;;;;;;;11.92;64.65;99816.56;5107206;28;20025;-60
2023/05/16 01:13:58;;;;;;;0.40;0.40;;;;;;;11.89;64.75;99812.31;5107154;28;20020;-61
2023/05/16 01:16:45;;;;;;;0.40;0.40;;;;;;;11.91;64.46;99809.69;5107236;28;20054;-60
2023/05/16 01:19:52;;;;;;;0.30;0.30;;;;;;;11.95;64.51;99800.91;5106101;28;20028;-61
2023/05/16 01:22:39;;;;;;;0.30;0.30;;;;;;;12.01;64.40;99807.72;5106801;28;20024;-61
2023/05/16 01:25:20;;;;;;;0.30;0.30;;;;;;;12.04;64.63;99802.44;5106951;28;20084;-61
2023/05/16 01:27:46;;;;;;;0.30;0.30;;;;;;;12.03;64.51;99791.16;5106544;28;20028;-61
2023/05/16 01:30:17;;;;;;;0.50;0.50;;;;;;;12.04;64.70;99797.25;5088508;28;20045;-61
2023/05/16 01:32:43;;;;;;;0.30;0.30;;;;;;;12.12;64.33;99797.91;5106439;28;20047;-61
2023/05/16 01:35:15;;;;;;;0.30;0.30;;;;;;;12.13;64.27;99802.25;5106911;28;20034;-61
2023/05/16 01:38:03;;;;;;;0.40;0.40;;;;;;;12.16;63.96;99801.31;5088327;28;20383;-61
2023/05/16 01:40:41;;;;;;;0.30;0.30;;;;;;;12.22;63.72;99800.31;5106734;28;20020;-61
2023/05/16 01:43:10;;;;;;;0.95;0.95;;;;;;;12.25;63.19;99797.63;5106586;28;20460;-62
2023/05/16 01:45:41;;;;;;;0.30;0.30;;;;;;;12.26;63.21;99796.72;5106494;28;20039;-60
2023/05/16 01:48:12;;;;;;;0.30;0.30;;;;;;;12.23;63.05;99794.19;5106316;28;20032;-61
2023/05/16 01:50:48;;;;;;;0.30;0.30;;;;;;;12.22;63.00;99787.28;5106245;28;20035;-61
2023/05/16 01:53:22;;;;;;;0.30;0.30;;;;;;;12.19;63.70;99797.78;5106319;28;20054;-61
2023/05/16 01:55:55;;;;;;;0.30;0.30;;;;;;;12.12;65.05;99795.31;5106285;28;20023;-61
2023/05/16 01:58:25;;;;;;;0.50;0.50;;;;;;;12.07;66.12;99799.75;5106324;28;20395;-61
2023/05/16 02:00:52;;;;;;;0.30;0.30;;;;;;;12.06;66.27;99800.63;5106159;28;20020;-61
2023/05/16 02:03:18;;;;;;;0.30;0.30;;;;;;;12.04;64.97;99792.03;5105981;28;20462;-61
2023/05/16 02:05:43;;;;;;;0.30;0.30;;;;;;;12.03;64.90;99787.69;5106226;28;20024;-61
2023/05/16 02:08:09;;;;;;;0.38;0.38;;;;;;;12.01;63.94;99787.75;5106062;28;20031;-60
2023/05/16 02:10:35;;;;;;;0.30;0.30;;;;;;;12.00;63.70;99787.78;5106350;28;20084;-61
2023/05/16 02:13:00;;;;;;;0.30;0.30;;;;;;;11.94;63.69;99786.19;5105853;28;20024;-60
2023/05/16 02:15:25;;;;;;;0.30;0.30;;;;;;;11.89;63.90;99782.84;5105853;28;20084;-60
2023/05/16 02:17:51;;;;;;;0.45;0.45;;;;;;;11.77;63.57;99771.81;5105713;28;20096;-60
2023/05/16 02:20:16;;;;;;;0.40;0.40;;;;;;;11.57;65.38;99751.50;5105916;28;20086;-61
2023/05/16 02:22:43;;;;;;;0.30;0.30;;;;;;;11.71;65.99;99768.53;5105597;28;20035;-60
2023/05/16 02:25:09;;;;;;;0.30;0.30;;;;;;;11.63;67.56;99772.16;5105932;28;20104;-60
2023/05/16 02:27:35;;;;;;;0.40;0.40;;;;;;;11.61;67.24;99765.28;5105745;28;20047;-60
2023/05/16 02:30:00;;;;;;;0.40;0.40;;;;;;;11.57;68.56;99767.09;5104975;28;20020;-60
2023/05/16 02:32:26;;;;;;;0.40;0.40;;;;;;;11.54;69.27;99767.19;5105307;28;20028;-62
2023/05/16 02:34:51;;;;;;;1.27;1.17;;;;;;;11.52;70.38;99763.75;5105592;28;20471;-61
2023/05/16 02:37:17;;;;;;;1.15;1.15;;;;;;;11.51;71.12;99770.72;5087145;28;20398;-61
2023/05/16 02:39:42;;;;;;;1.55;1.45;;;;;;;11.47;71.41;99750.84;5105521;28;20111;-60
2023/05/16 02:42:08;;;;;;;0.90;0.85;;;;;;;11.48;71.95;99755.19;5105478;28;20024;-62
2023/05/16 02:44:33;;;;;;;0.63;0.63;;;;;;;11.44;72.63;99745.72;5105368;28;20020;-60
2023/05/16 02:46:59;;;;;;;0.30;0.30;;;;;;;11.46;72.75;99748.28;5105196;28;20090;-59
2023/05/16 02:49:24;;;;;;;0.35;0.35;;;;;;;11.48;72.21;99744.78;5105195;28;20121;-61
2023/05/16 02:51:50;;;;;;;1.25;1.17;;;;;;;11.55;70.60;99749.84;5105504;28;20079;-61
2023/05/16 02:54:16;;;;;;;1.25;1.25;;;;;;;11.56;69.91;99746.34;5105189;28;20102;-62
2023/05/16 02:56:41;;;;;;;0.30;0.30;;;;;;;11.57;69.84;99748.91;5105020;28;20112;-60
2023/05/16 02:59:07;;;;;;;0.85;0.85;;;;;;;11.57;70.17;99754.09;5105360;28;20032;-60
2023/05/16 03:01:33;;;;;;;0.30;0.30;;;;;;;11.60;68.96;99754.03;5105003;28;20024;-60
2023/05/16 03:03:59;;;;;;;0.30;0.30;;;;;;;11.62;67.98;99752.25;5105103;28;20028;-60
2023/05/16 03:06:24;;;;;;;0.45;0.45;;;;;;;11.62;67.61;99748.78;5105224;28;20428;-62
2023/05/16 03:08:49;;;;;;;0.30;0.30;;;;;;;11.63;67.98;99748.75;5104959;28;20058;-61
2023/05/16 03:11:21;;;;;;;0.30;0.30;;;;;;;11.63;67.74;99753.09;5105425;28;20020;-61
2023/05/16 03:13:47;;;;;;;0.30;0.30;;;;;;;11.63;67.47;99761.75;5105437;28;20051;-60
2023/05/16 03:16:12;;;;;;;0.30;0.30;;;;;;;11.61;67.87;99762.69;5105161;28;20027;-62
2023/05/16 03:18:38;;;;;;;0.30;0.30;;;;;;;11.66;67.11;99763.44;5104807;28;20024;-61
2023/05/16 03:21:03;;;;;;;0.38;0.38;;;;;;;11.68;66.89;99763.41;5104947;28;20050;-60
2023/05/16 03:23:29;;;;;;;0.30;0.30;;;;;;;11.69;66.95;99765.13;5104996;28;20028;-62
2023/05/16 03:25:55;;;;;;;0.30;0.30;;;;;;;11.69;66.69;99757.31;5105020;28;20038;-60
2023/05/16 03:28:20;;;;;;;0.80;0.80;;;;;;;11.70;66.96;99759.00;5105004;28;20023;-61
2023/05/16 03:30:46;;;;;;;0.32;0.32;;;;;;;11.73;67.21;99762.41;5104959;28;20058;-61
2023/05/16 03:33:11;;;;;;;0.40;0.40;;;;;;;11.76;68.59;99758.88;5104742;28;20408;-61
2023/05/16 03:35:38;;;;;;;0.40;0.40;;;;;;;11.80;67.88;99757.91;5086784;28;20020;-60
2023/05/16 03:38:03;;;;;;;1.58;1.48;;;;;;;11.81;68.56;99764.81;5104929;28;20032;-62
2023/05/16 03:40:28;;;;;;;0.40;0.40;;;;;;;11.81;68.29;99757.00;5105029;28;20031;-61
2023/05/16 03:42:54;;;;;;;0.30;0.30;;;;;;;11.82;67.63;99758.72;5108632;28;20020;-62
2023/05/16 03:45:19;;;;;;;0.30;0.30;;;;;;;11.84;67.20;99761.28;5109171;28;20371;-61
2023/05/16 03:47:45;;;;;;;0.30;0.30;;;;;;;11.83;67.40;99762.19;5108644;28;20040;-61
2023/05/16 03:50:10;;;;;;;0.30;0.30;;;;;;;11.87;67.42;99762.06;5108922;28;20028;-62
2023/05/16 03:52:36;;;;;;;0.93;0.93;;;;;;;11.96;67.56;99765.34;5108569;28;20027;-60
2023/05/16 03:55:03;;;;;;;0.30;0.30;;;;;;;12.12;67.43;99753.69;5108772;28;20089;-61
2023/05/16 03:57:32;;;;;;;0.30;0.30;;;;;;;12.24;67.12;99746.44;5108619;28;20028;-61
2023/05/16 03:59:57;;;;;;;0.30;0.30;;;;;;;12.28;67.01;99750.69;5108652;28;20046;-60
2023/05/16 04:02:23;;;;;;;0.77;0.77;;;;;;;12.34;67.12;99754.88;5108279;28;20028;-60
2023/05/16 04:04:48;;;;;;;0.30;0.30;;;;;;;12.40;67.28;99754.72;5108806;28;20031;-62
2023/05/16 04:07:14;;;;;;;0.30;0.30;;;;;;;12.52;67.13;99749.19;5108444;28;20020;-61
2023/05/16 04:09:39;;;;;;;4.15;2.15;;;;;;;12.76;68.09;99740.75;5108261;28;20186;-62
2023/05/16 04:12:05;;;;;;;0.30;0.30;;;;;;;13.17;69.03;99734.34;5108583;28;20020;-61
2023/05/16 04:14:30;;;;;;;0.60;0.60;;;;;;;13.66;69.52;99736.38;5108618;28;20357;-62
2023/05/16 04:16:56;;;;;;;0.47;0.47;;;;;;;14.09;71.22;99728.91;5108280;28;20016;-61
2023/05/16 04:19:21;;;;;;;0.50;0.50;;;;;;;14.66;70.60;99727.78;5108072;28;20529;-62
2023/05/16 04:21:47;;;;;;;0.75;0.75;;;;;;;15.28;69.53;99724.66;5108018;28;20060;-62
2023/05/16 04:24:12;;;;;;;0.40;0.40;;;;;;;15.76;68.75;99738.47;5108120;28;20023;-62
2023/05/16 04:26:38;;;;;;;3.33;1.08;;;;;;;16.13;67.01;99732.63;5108012;28;20016;-62
2023/05/16 04:29:03;;;;;;;0.30;0.30;;;;;;;16.43;66.33;99734.84;5108109;28;20024;-64
2023/05/16 04:31:28;;;;;;;1.48;1.45;;;;;;;16.80;65.50;99721.88;5107814;28;20486;-62
2023/05/16 04:33:54;;;;;;;2.50;2.30;;;;;;;17.17;63.48;99735.91;5107797;28;20031;-62
2023/05/16 04:36:21;;;;;;;0.30;0.30;;;;;;;17.55;63.72;99735.03;5089665;28;20020;-63
2023/05/16 04:38:46;;;;;;;0.30;0.30;;;;;;;17.77;62.19;99730.47;5107547;28;20078;-62
2023/05/16 04:41:12;;;;;;;0.65;0.65;;;;;;;17.74;61.11;99723.63;5107915;28;20028;-63
2023/05/16 04:43:39;;;;;;;1.15;1.10;;;;;;;17.74;60.61;99726.25;5107596;28;20462;-62
2023/05/16 04:46:06;;;;;;;0.30;0.30;;;;;;;17.59;60.37;99722.59;5107650;28;20024;-62
2023/05/16 04:48:32;;;;;;;4.00;3.63;;;;;;;17.20;59.78;99725.28;5107269;28;20517;-63
2023/05/16 04:50:57;;;;;;;1.00;1.00;;;;;;;16.69;60.61;99724.97;5089453;28;20032;-63
2023/05/16 04:53:24;;;;;;;0.32;0.32;;;;;;;16.37;61.27;99729.88;5106294;28;20051;-63
2023/05/16 04:55:50;;;;;;;0.73;0.73;;;;;;;16.04;62.70;99724.25;5107582;28;20111;-62
2023/05/16 04:58:15;;;;;;;0.52;0.52;;;;;;;15.83;63.94;99718.97;5107464;28;20028;-63
2023/05/16 05:00:41;;;;;;;0.30;0.30;;;;;;;16.07;64.52;99728.50;5107390;28;20020;-62
2023/05/16 05:03:06;;;;;;;0.30;0.30;;;;;;;16.58;65.51;99717.59;5106966;28;20027;-63
2023/05/16 05:05:32;;;;;;;2.25;2.05;;;;;;;17.23;64.68;99711.19;5107380;28;20024;-63
2023/05/16 05:07:59;;;;;;;0.20;0.20;;;;;;;17.80;62.73;99710.19;5107400;28;20028;-64
2023/05/16 05:10:26;;;;;;;0.20;0.20;;;;;;;18.26;62.92;99713.22;5107084;28;20016;-63
2023/05/16 05:12:52;;;;;;;0.40;0.40;;;;;;;18.86;62.16;99708.31;5107111;28;20028;-61
2023/05/16 05:15:18;;;;;;;0.30;0.30;;;;;;;19.27;60.23;99713.09;5107401;28;20024;-62
2023/05/16 05:17:43;;;;;;;0.63;0.63;;;;;;;19.36;58.84;99718.78;5106508;28;20043;-63
2023/05/16 05:20:09;;;;;;;0.30;0.30;;;;;;;19.12;58.58;99719.22;5107072;28;20440;-63
2023/05/16 05:22:34;;;;;;;1.67;1.58;;;;;;;19.03;58.97;99720.53;5106935;28;20077;-63
2023/05/16 05:25:00;;;;;;;0.20;0.20;;;;;;;18.83;58.85;99715.44;5107000;28;20027;-63
2023/05/16 05:27:26;;;;;;;1.02;0.95;;;;;;;18.73;58.43;99719.50;5106881;28;20016;-63
2023/05/16 05:29:52;;;;;;;0.52;0.35;;;;;;;18.59;58.89;99730.78;5106686;28;20027;-63
2023/05/16 05:32:17;;;;;;;0.50;0.50;;;;;;;18.42;58.66;99724.59;5106374;28;20032;-62
2023/05/16 05:34:42;;;;;;;0.20;0.20;;;;;;;18.36;58.49;99721.44;5106756;28;20024;-60
2023/05/16 05:37:08;;;;;;;0.68;0.68;;;;;;;18.42;58.16;99719.34;5106515;28;20024;-62
2023/05/16 05:39:33;;;;;;;0.20;0.20;;;;;;;18.36;58.26;99716.19;5088298;28;20031;-63
2023/05/16 05:41:59;;;;;;;1.27;1.10;;;;;;;18.56;58.56;99718.63;5088416;28;20035;-63
2023/05/16 05:44:24;;;;;;;0.57;0.57;;;;;;;18.80;59.08;99720.88;5106403;28;20626;-63
2023/05/16 05:46:50;;;;;;;0.20;0.20;;;;;;;19.34;59.35;99720.66;5106600;28;20149;-63
2023/05/16 05:49:16;;;;;;;1.88;1.77;;;;;;;19.85;58.55;99727.44;5087596;28;20048;-63
2023/05/16 05:51:41;;;;;;;0.90;0.90;;;;;;;20.17;56.60;99717.66;5106364;28;20036;-63
2023/05/16 05:54:07;;;;;;;0.57;0.47;;;;;;;20.43;55.61;99728.41;5106422;28;20464;-62
2023/05/16 05:56:32;;;;;;;0.77;0.77;;;;;;;20.39;54.05;99726.03;5106060;28;20031;-63
2023/05/16 05:58:57;;;;;;;0.45;0.45;;;;;;;20.27;54.08;99717.94;5106037;28;20048;-63
2023/05/16 06:01:23;;;;;;;0.43;0.43;;;;;;;20.27;54.41;99723.22;5106103;28;20107;-63
2023/05/16 06:03:48;;;;;;;3.05;2.33;;;;;;;20.23;54.08;99723.50;5105752;28;20038;-63
2023/05/16 06:06:14;;;;;;;0.50;0.50;;;;;;;20.14;54.10;99717.00;5106148;28;20039;-62
2023/05/16 06:08:40;;;;;;;0.20;0.20;;;;;;;20.27;54.34;99719.75;5087751;28;20020;-63
2023/05/16 06:11:06;;;;;;;0.45;0.45;;;;;;;20.37;54.10;99726.16;5106150;28;20024;-62
2023/05/16 06:13:31;;;;;;;0.30;0.30;;;;;;;20.58;53.57;99730.19;5106335;28;20050;-63
2023/05/16 06:15:56;;;;;;;0.35;0.35;;;;;;;20.61;53.01;99730.00;5106160;28;20020;-62
2023/05/16 06:18:22;;;;;;;0.20;0.20;;;;;;;20.65;52.77;99728.88;5105962;28;20028;-62
2023/05/16 06:20:47;;;;;;;0.57;0.57;;;;;;;20.36;52.45;99729.72;5087718;28;20046;-63
2023/05/16 06:23:13;;;;;;;0.38;0.38;;;;;;;19.99;52.50;99729.25;5105928;28;20050;-63
2023/05/16 06:25:38;;;;;;;2.03;1.60;;;;;;;19.67;52.86;99723.16;5105881;28;20028;-63
2023/05/16 06:28:03;;;;;;;0.75;0.75;;;;;;;19.37;52.93;99720.47;5105663;28;20027;-61
2023/05/16 06:30:29;;;;;;;0.45;0.45;;;;;;;19.06;53.22;99718.59;5106131;28;20023;-62
2023/05/16 06:32:54;;;;;;;0.20;0.20;;;;;;;18.74;54.30;99728.25;5105345;28;20028;-62
2023/05/16 06:35:20;;;;;;;0.40;0.40;;;;;;;18.38;54.66;99716.97;5105794;28;20024;-63
2023/05/16 06:37:45;;;;;;;0.52;0.52;;;;;;;18.04;55.45;99720.38;5105669;28;20020;-63
2023/05/16 06:40:11;;;;;;;0.40;0.40;;;;;;;17.93;55.58;99710.41;5105843;28;20098;-63
2023/05/16 06:42:37;;;;;;;0.73;0.73;;;;;;;17.81;55.86;99719.75;5105719;28;20024;-62
2023/05/16 06:45:03;;;;;;;0.30;0.30;;;;;;;17.69;55.86;99721.22;5105569;28;20020;-63
2023/05/16 06:47:28;;;;;;;0.20;0.20;;;;;;;17.74;55.39;99723.63;5105194;28;20048;-63
2023/05/16 06:49:54;;;;;;;0.20;0.20;;;;;;;17.53;55.21;99718.50;5105684;28;20036;-63
2023/05/16 06:52:20;;;;;;;0.20;0.20;;;;;;;17.37;55.54;99726.25;5105574;28;20043;-62
2023/05/16 06:54:45;;;;;;;0.40;0.40;;;;;;;17.30;55.61;99723.06;5105464;28;20084;-63
2023/05/16 06:57:12;;;;;;;0.20;0.20;;;;;;;17.23;55.51;99724.28;5087082;28;20058;-63
2023/05/16 06:59:37;;;;;;;0.30;0.30;;;;;;;17.14;55.54;99724.75;5105588;28;20089;-63
2023/05/16 07:02:03;;;;;;;0.20;0.20;;;;;;;17.03;56.10;99720.78;5105428;28;20024;-59
2023/05/16 07:04:29;;;;;;;0.20;0.20;;;;;;;17.15;56.95;99731.66;5105407;28;20024;-63
2023/05/16 07:06:54;;;;;;;0.20;0.20;;;;;;;17.30;56.58;99735.34;5105539;28;20020;-62
2023/05/16 07:09:20;;;;;;;0.20;0.20;;;;;;;17.40;56.44;99735.75;5105281;28;20028;-62
2023/05/16 07:11:45;;;;;;;0.20;0.20;;;;;;;17.43;56.26;99730.34;5105556;28;20039;-63
2023/05/16 07:14:11;;;;;;;0.68;0.55;;;;;;;17.41;55.94;99727.78;5105647;28;20032;-63
2023/05/16 07:16:37;;;;;;;0.20;0.20;;;;;;;17.45;55.98;99728.50;5107100;28;20016;-62
2023/05/16 07:19:02;;;;;;;0.20;0.20;;;;;;;17.31;56.15;99730.03;5109427;28;20020;-63
2023/05/16 07:21:28;;;;;;;0.85;0.52;;;;;;;17.09;56.34;99731.03;5109613;28;20066;-62
2023/05/16 07:23:53;;;;;;;0.30;0.30;;;;;;;16.98;56.52;99728.03;5109486;28;20028;-63
2023/05/16 07:26:21;;;;;;;0.20;0.20;;;;;;;16.90;56.09;99728.38;5109563;28;20020;-63
2023/05/16 07:28:48;;;;;;;0.20;0.20;;;;;;;16.77;56.55;99735.97;5109334;28;20038;-63
2023/05/16 07:31:13;;;;;;;0.30;0.30;;;;;;;16.63;56.32;99740.97;5109096;28;20020;-62
2023/05/16 07:33:39;;;;;;;0.28;0.28;;;;;;;16.53;56.75;99740.53;5109099;28;20079;-62
2023/05/16 07:36:05;;;;;;;0.20;0.20;;;;;;;16.44;57.25;99740.00;5109251;28;20024;-62
2023/05/16 07:38:30;;;;;;;0.30;0.30;;;;;;;16.52;57.03;99739.66;5128020;22;20062;-63
2023/05/16 07:40:56;;;;;;;0.20;0.20;;;;;;;16.45;56.59;99736.47;5133700;22;20066;-72
2023/05/16 07:43:21;;;;;;;0.20;0.20;;;;;;;16.23;57.62;99728.69;5129401;28;20089;-72
2023/05/16 07:45:47;;;;;;;0.30;0.30;;;;;;;16.23;57.93;99728.69;5111141;28;20406;-72
2023/05/16 07:48:12;;;;;;;0.30;0.30;;;;;;;16.29;57.64;99727.59;5129189;28;20023;-74
2023/05/16 07:50:37;;;;;;;0.30;0.30;;;;;;;16.32;58.04;99733.56;5110910;28;20087;-73
2023/05/16 07:53:03;;;;;;;0.22;0.22;;;;;;;16.43;58.09;99733.06;5129195;28;20039;-72
2023/05/16 07:55:28;;;;;;;0.30;0.30;;;;;;;16.46;58.13;99737.31;5129275;28;20084;-73
2023/05/16 07:57:54;;;;;;;0.20;0.20;;;;;;;16.34;59.16;99741.34;5129173;28;20412;-73
2023/05/16 08:00:20;;;;;;;0.20;0.20;;;;;;;16.35;59.42;99736.03;5128971;28;20019;-73
2023/05/16 08:02:45;;;;;;;0.30;0.30;;;;;;;16.41;58.53;99734.91;5128916;28;20024;-72
2023/05/16 08:05:11;;;;;;;0.30;0.30;;;;;;;16.56;58.15;99736.00;5129138;28;20169;-72
2023/05/16 08:07:36;;;;;;;0.20;0.20;;;;;;;16.59;57.98;99730.63;5128973;28;20038;-72
2023/05/16 08:10:02;;;;;;;1.48;1.17;;;;;;;16.46;57.94;99722.47;5136220;22;20047;-61
2023/05/16 08:12:29;;;;;;;0.68;0.68;;;;;;;16.47;58.41;99733.78;5134037;22;20028;-72
2023/05/16 08:14:55;;;;;;;0.30;0.30;;;;;;;16.57;58.47;99731.59;5119404;22;20185;-72
2023/05/16 08:17:21;;;;;;;0.20;0.20;;;;;;;16.76;57.92;99734.25;5109222;28;20023;-72
2023/05/16 08:19:46;;;;;;;0.20;0.20;;;;;;;16.83;58.49;99713.84;5128451;28;20023;-72
2023/05/16 08:22:11;;;;;;;1.17;1.02;;;;;;;17.15;58.09;99731.66;5128851;28;20019;-71
2023/05/16 08:24:37;;;;;;;1.15;1.15;;;;;;;17.26;58.09;99733.78;5128763;28;20024;-72
2023/05/16 08:27:02;;;;;;;0.20;0.20;;;;;;;17.46;58.01;99727.56;5129183;28;20145;-72
2023/05/16 08:29:28;;;;;;;0.20;0.20;;;;;;;17.74;57.48;99730.63;5129058;28;20024;-73
2023/05/16 08:31:53;;;;;;;0.20;0.20;;;;;;;18.11;57.07;99730.56;5135146;22;20054;-62
2023/05/16 08:34:19;;;;;;;0.20;0.20;;;;;;;18.45;56.79;99739.38;5128352;28;20020;-61
2023/05/16 08:36:44;;;;;;;0.30;0.30;;;;;;;18.79;56.37;99728.84;5128529;28;20024;-61
2023/05/16 08:39:10;;;;;;;0.30;0.30;;;;;;;19.18;55.41;99734.69;5128540;28;20019;-62
2023/05/16 08:41:36;;;;;;;0.20;0.20;;;;;;;19.40;54.55;99709.78;5128365;28;20024;-61
2023/05/16 08:44:02;;;;;;;0.20;0.20;;;;;;;19.70;53.71;99727.38;5128283;28;20030;-61
2023/05/16 08:46:27;;;;;;;0.20;0.20;;;;;;;19.99;53.19;99731.88;5128380;28;20019;-60
2023/05/16 08:48:58;;;;;;;0.20;0.20;;;;;;;20.45;53.03;99728.31;5128767;28;20031;-61
2023/05/16 08:51:26;;;;;;;0.30;0.30;;;;;;;21.14;51.73;99730.25;5128318;28;20115;-61
2023/05/16 08:53:55;;;;;;;0.22;0.22;;;;;;;22.16;49.05;99713.97;5128131;28;20027;-62
2023/05/16 08:56:22;;;;;;;0.20;0.20;;;;;;;22.82;47.19;99713.94;5128092;28;20072;-61
2023/05/16 08:58:50;;;;;;;0.68;0.68;;;;;;;23.39;45.86;99722.22;5128025;28;20020;-61
2023/05/16 09:01:17;;;;;;;0.20;0.20;;;;;;;24.18;45.72;99715.53;5128130;28;20505;-62
2023/05/16 09:03:43;;;;;;;0.20;0.20;;;;;;;24.62;45.18;99715.66;5127754;28;20466;-60
2023/05/16 09:06:08;;;;;;;0.22;0.22;;;;;;;25.22;42.76;99709.22;5128161;28;20157;-61
2023/05/16 09:08:34;;;;;;;0.10;0.10;;;;;;;25.59;41.94;99707.13;5128171;28;20054;-61
2023/05/16 09:11:01;;;;;;;2.22;1.02;;;;;;;26.39;40.20;99719.16;5128087;28;20023;-61
2023/05/16 09:13:26;;;;;;;1.17;0.47;;;;;;;26.62;38.29;99719.78;5128049;28;20030;-61
2023/05/16 09:16:12;;;;;;;0.10;0.10;;;;;;;26.75;39.41;99713.38;5127619;28;20020;-62
2023/05/16 09:18:39;;;;;;;0.30;0.30;;;;;;;26.68;39.68;99721.91;5127481;28;20110;-61
2023/05/16 09:21:06;;;;;;;0.10;0.10;;;;;;;26.39;38.74;99711.97;5127804;28;20030;-61
2023/05/16 09:23:32;;;;;;;0.10;0.10;;;;;;;26.76;37.92;99709.75;5127406;28;20024;-61
2023/05/16 09:25:58;;;;;;;0.10;0.10;;;;;;;27.22;36.83;99718.97;5127708;28;20028;-61
2023/05/16 09:28:24;;;;;;;0.35;0.35;;;;;;;27.35;35.97;99708.03;5127487;28;20022;-61
2023/05/16 09:30:52;;;;;;;0.10;0.10;;;;;;;27.68;36.03;99705.13;5127348;28;20127;-61
2023/05/16 09:33:17;;;;;;;1.67;1.58;;;;;;;27.77;35.42;99706.09;5127336;28;20046;-62
2023/05/16 09:35:43;;;;;;;0.10;0.10;;;;;;;27.28;35.78;99700.75;5127446;28;20031;-61
2023/05/16 09:38:15;;;;;;;0.25;0.25;;;;;;;26.36;36.13;99704.28;5127224;28;20024;-61
2023/05/16 09:40:41;;;;;;;0.22;0.22;;;;;;;26.28;36.85;99696.09;5126923;28;20065;-62
2023/05/16 09:43:07;;;;;;;0.30;0.30;;;;;;;26.35;36.34;99706.09;5127099;28;20028;-62
2023/05/16 09:45:35;;;;;;;0.30;0.30;;;;;;;25.77;36.75;99702.09;5127227;28;20050;-61
2023/05/16 09:48:05;;;;;;;0.65;0.65;;;;;;;25.60;37.08;99698.19;5126929;28;20016;-61
2023/05/16 09:50:34;;;;;;;0.10;0.10;;;;;;;25.25;37.19;99710.75;5127093;28;20023;-60
2023/05/16 09:53:01;;;;;;;0.10;0.10;;;;;;;25.00;38.28;99705.63;5126835;28;20080;-61
2023/05/16 09:55:26;;;;;;;0.30;0.30;;;;;;;25.05;38.69;99702.59;5126979;28;20023;-61
2023/05/16 09:57:52;;;;;;;0.10;0.10;;;;;;;24.99;38.68;99703.09;5126744;28;20046;-60
2023/05/16 10:00:17;;;;;;;0.50;0.50;;;;;;;24.84;38.91;99711.28;5127226;28;20046;-60
2023/05/16 10:02:43;;;;;;;0.85;0.65;;;;;;;25.02;39.08;99697.53;5126735;28;20506;-61
2023/05/16 10:05:08;;;;;;;0.75;0.75;;;;;;;25.30;37.79;99705.06;5126754;28;20110;-62
2023/05/16 10:07:34;;;;;;;0.10;0.10;;;;;;;25.29;37.67;99703.38;5126700;28;20024;-62
2023/05/16 10:10:07;;;;;;;0.10;0.10;;;;;;;25.24;38.56;99699.28;5126651;28;20030;-61
2023/05/16 10:12:35;;;;;;;0.30;0.30;;;;;;;25.23;37.46;99700.25;5126967;28;20102;-61
2023/05/16 10:15:03;;;;;;;0.75;0.73;;;;;;;24.81;38.34;99702.75;5126761;28;20019;-62
2023/05/16 10:17:32;;;;;;;0.22;0.22;;;;;;;24.45;39.16;99703.75;5108171;28;20027;-60
2023/05/16 10:20:00;;;;;;;0.10;0.10;;;;;;;24.34;39.65;99706.38;5126583;28;20054;-61
2023/05/16 10:22:27;;;;;;;0.40;0.40;;;;;;;23.95;40.06;99704.00;5126398;28;20038;-60
2023/05/16 10:24:56;;;;;;;0.30;0.30;;;;;;;23.50;40.70;99687.84;5126428;28;20084;-61
2023/05/16 10:27:22;;;;;;;1.35;1.35;;;;;;;22.91;41.31;99707.97;5126472;28;20020;-60
2023/05/16 10:29:48;;;;;;;0.20;0.20;;;;;;;22.33;42.52;99711.13;5091095;28;20019;-61
2023/05/16 10:32:15;;;;;;;0.10;0.10;;;;;;;22.00;43.63;99705.38;5107946;28;20047;-60
2023/05/16 10:34:41;;;;;;;1.95;1.27;;;;;;;22.00;44.39;99698.31;5126248;28;20498;-60
2023/05/16 10:37:08;;;;;;;0.17;0.17;;;;;;;22.67;43.85;99695.53;5126074;28;20034;-62
2023/05/16 10:39:35;;;;;;;0.10;0.10;;;;;;;23.25;42.75;99702.03;5126195;28;20031;-62
2023/05/16 10:42:00;;;;;;;0.20;0.20;;;;;;;23.80;41.84;99706.03;5126260;28;20027;-61
2023/05/16 10:44:26;;;;;;;0.20;0.20;;;;;;;24.10;41.30;99708.16;5125964;28;20030;-60
2023/05/16 10:46:51;;;;;;;2.72;1.20;;;;;;;24.07;41.26;99699.56;5125995;28;20035;-61
2023/05/16 10:49:24;;;;;;;0.30;0.30;;;;;;;24.09;41.17;99695.81;5125962;28;20024;-61
2023/05/16 10:52:16;;;;;;;0.22;0.22;;;;;;;23.86;41.97;99695.81;5125255;28;20024;-62
2023/05/16 10:54:51;;;;;;;;;;;;;;;23.89;41.79;99695.56;5122561;28;20351;-61
2023/05/16 10:57:23;;;;;;;0.55;0.55;;;;;;;23.48;42.73;99689.75;5126008;28;20006;-62
2023/05/16 10:59:50;;;;;;;0.20;0.20;;;;;;;23.41;43.09;99685.91;5126086;28;20049;-60
2023/05/16 11:02:27;;;;;;;0.85;0.85;;;;;;;23.06;42.77;99681.34;5126246;28;20026;-61
2023/05/16 11:04:58;;;;;;;2.45;1.55;;;;;;;22.75;43.53;99679.97;5125749;28;20024;-61
2023/05/16 11:07:25;;;;;;;0.20;0.20;;;;;;;22.47;43.97;99687.19;5126051;28;20079;-61
2023/05/16 11:10:06;;;;;;;0.68;0.68;;;;;;;22.24;44.07;99691.44;5125687;28;20040;-61
2023/05/16 11:12:41;;;;;;;0.20;0.20;;;;;;;22.00;44.61;99689.53;5125992;28;20171;-61
2023/05/16 11:15:34;;;;;;;0.20;0.20;;;;;;;21.82;44.96;99689.81;5125897;28;20019;-61
2023/05/16 11:18:15;;;;;;;0.63;0.63;;;;;;;21.61;45.09;99695.59;5125389;28;20126;-61
2023/05/16 11:20:40;;;;;;;1.15;0.70;;;;;;;21.48;45.39;99699.97;5125987;28;20016;-61
2023/05/16 11:23:17;;;;;;;0.30;0.30;;;;;;;21.18;45.84;99699.25;5125700;28;20045;-61
2023/05/16 11:26:02;;;;;;;0.20;0.20;;;;;;;20.89;46.65;99694.88;5125880;28;20053;-61
2023/05/16 11:28:27;;;;;;;0.43;0.43;;;;;;;20.86;46.39;99699.47;5125658;28;20058;-61
2023/05/16 11:30:56;;;;;;;0.82;0.77;;;;;;;20.85;46.75;99700.41;5125532;28;20079;-62
2023/05/16 11:33:23;;;;;;;0.20;0.20;;;;;;;20.75;47.28;99698.34;5125232;28;20030;-63